Etusivu
METAR-TAF:

METAR-TAF

Lentoasemat :

Helsinki-Vantaan lentoasema

Helsinki, Suomi

Leveyspiiri: 60-19N, Pituuspiiri: 024-58E, korkeus merenpinnasta: 51 m

Tämänhetkinen sää

Tämä raportti tehtiin 7 minuuttia sitten, kello 03.50 UTC
Tuuli 5 kn etelästä/lounaasta
Lämpötila 5°C
Kosteus 81%
Ilmanpaine 1028 hPa
Näkyvyys 10 km tai enemmän
ei pilviä alle 1500 m:ssä eikä cumulonimbus-pilviä

METAR: EFHK 230350Z 20005KT CAVOK 05/02 Q1028 NOSIG

Aika: 06:57 (03:57 UTC)

Sääennuste

Tämä raportti tehtiin 1 tunti ja 34 minuuttia sitten, kello 02.23 UTC
Ennuste voimassa 23. päivästä klo 03 UTC - 24. päivään klo 03 UTC
Tuuli 2 kn etelästä/lounaasta
Näkyvyys 10 km tai enemmän
ei pilviä alle 1500 m:ssä eikä cumulonimbus-pilviä
Tulossa
23. päivästä klo 06 UTC - 23. päivään klo 08 UTC
Tuuli 12 kn lounaasta
Tulossa
23. päivästä klo 18 UTC - 23. päivään klo 20 UTC
Tuuli 2 kn eri suunnista

TAF: EFHK 230223Z 2303/2403 20002KT CAVOK BECMG 2306/2308 23012KT BECMG 2318/2320 VRB02KT

Säähavainnot ja -ennusteet yli 4000 lentoasemalta (METAR- ja TAF-raportit).

Käytössä olevat sääasemat on merkitty karttaan keltaisilla ja punaisilla pisteillä.

Aseta hiiri pisteen päälle nähdäksesi sääaseman nimen.

Klikkaa sitten nähdäksesi säähavainnot ja -ennusteet.

Kartan vaihtaminen: klikkaa mustalla rastilla varustettuja vihreitä pisteitä, niin voit zoomata sisään; viivalla varustettua vihreää pistettä, niin voit zoomata ulos tai vihreitä nuolia, niin pääset viereisille kartoille.


METAR-TAF: